Home   Weather   India   Chennai   Past weeks
Flag for India

Past Weather in Chennai, Tamil Nadu, India — Yesterday and Last 2 Weeks

Currently: 99 °F. Scattered clouds. (Weather station: Madras / Minambakkam, India). See more current weather

Past Weather in Chennai — Graph

°F

Chennai Temperature Yesterday

Maximum temperature yesterday: 100 °F (at 3:30 pm)
Minimum temperature yesterday: 84 °F (at 5:00 am)
Average temperature yesterday: 92 °F

High & Low Weather Summary for the Past Weeks

 TemperatureHumidityPressure
High100 °F (Jun 8, 3:00 pm)89% (Jun 4, 6:00 am)29.80 "Hg (Jun 4, 6:00 am)
Low79 °F (Jun 6, 3:30 am)37% (Jun 16, 4:00 pm)29.53 "Hg (Jun 13, 3:30 pm)
Average89 °F63%29.67 "Hg
* Reported Jun 2 1:30 pm — Jun 17 2:00 pm, Chennai. Weather by CustomWeather, © 2021

Note: Actual official high and low records may vary slightly from our data, if they occured in-between our weather recording intervals... More about our weather records

Chennai Weather History for the Previous 24 Hours

Scroll right to see more
 ConditionsComfort  
Time TempWeatherWind HumidityBarometerVisibility
2:00 pm
Thu, Jun 17
99 °FScattered clouds.12 mph39%29.62 "Hg4 mi
1:30 pm99 °FScattered clouds.12 mph39%29.62 "Hg4 mi
1:00 pm99 °FScattered clouds.17 mph39%29.65 "Hg4 mi
12:30 pm99 °FScattered clouds.17 mph42%29.65 "Hg4 mi
12:00 pm99 °FScattered clouds.12 mph42%29.65 "Hg4 mi
11:30 am97 °FScattered clouds.12 mph44%29.68 "Hg4 mi
11:00 am97 °FScattered clouds.12 mph44%29.68 "Hg4 mi
10:30 am95 °FScattered clouds.17 mph47%29.68 "Hg4 mi
10:00 am93 °FScattered clouds.15 mph49%29.71 "Hg4 mi
9:30 am93 °FPassing clouds.10 mph49%29.71 "Hg4 mi
9:00 am91 °FPassing clouds.9 mph52%29.71 "Hg4 mi
8:30 am90 °FPassing clouds.10 mph55%29.71 "Hg4 mi
8:00 am90 °FScattered clouds.7 mph55%29.71 "Hg4 mi
7:30 am88 °FScattered clouds.8 mph59%29.71 "Hg4 mi
7:00 am86 °FScattered clouds.6 mph62%29.68 "Hg4 mi
6:30 am86 °FScattered clouds.6 mph62%29.68 "Hg4 mi
6:00 am86 °FPassing clouds.6 mph62%29.68 "Hg4 mi
5:30 am86 °FPassing clouds.6 mph62%29.65 "Hg4 mi
5:00 am86 °FPassing clouds.6 mph62%29.65 "Hg4 mi
4:30 am86 °FPassing clouds.6 mph59%29.65 "Hg4 mi
4:00 am86 °FPassing clouds.6 mph59%29.65 "Hg4 mi
3:30 am86 °FPassing clouds.6 mph62%29.65 "Hg4 mi
3:00 am86 °FPassing clouds.6 mph62%29.65 "Hg4 mi
2:30 am86 °FPassing clouds.6 mph62%29.65 "Hg4 mi
2:00 am86 °FPassing clouds.6 mph62%29.65 "Hg4 mi
1:30 am88 °FPassing clouds.7 mph59%29.65 "Hg4 mi
1:00 am88 °FPassing clouds.8 mph59%29.65 "Hg4 mi
12:30 am88 °FPassing clouds.7 mph55%29.68 "Hg4 mi
12:00 am88 °FPassing clouds.7 mph59%29.68 "Hg4 mi
11:30 pm
Wed, Jun 16
90 °FPassing clouds.8 mph55%29.68 "Hg4 mi
11:00 pm90 °FPassing clouds.8 mph55%29.71 "Hg4 mi
10:30 pm90 °FPassing clouds.7 mph55%29.68 "Hg4 mi
10:00 pm90 °FPassing clouds.8 mph55%29.68 "Hg4 mi
9:30 pm90 °FPassing clouds.8 mph55%29.68 "Hg4 mi
9:00 pm91 °FPassing clouds.12 mph49%29.68 "Hg4 mi
8:30 pm93 °FPartly cloudy.10 mph47%29.65 "Hg4 mi
8:00 pm95 °FPartly cloudy.10 mph44%29.65 "Hg4 mi
7:30 pm95 °FPartly cloudy.14 mph44%29.62 "Hg4 mi
7:00 pm95 °FBroken clouds.17 mph41%29.62 "Hg4 mi
6:30 pm95 °FBroken clouds.14 mph41%29.59 "Hg4 mi
6:00 pm99 °FScattered clouds.12 mph39%29.59 "Hg4 mi
5:30 pm99 °FScattered clouds.12 mph39%29.56 "Hg4 mi
5:00 pm99 °FBroken clouds.10 mph39%29.56 "Hg4 mi
4:30 pm99 °FBroken clouds.10 mph42%29.56 "Hg4 mi
4:00 pm100 °FBroken clouds.8 mph37%29.56 "Hg4 mi
3:30 pm100 °FBroken clouds.9 mph40%29.56 "Hg4 mi
3:00 pm99 °FBroken clouds.12 mph42%29.59 "Hg4 mi
Weather by CustomWeather, © 2021

See weather overview